Time;durP1;ratioP1;P1;durP2;ratioP2;P2;SDS_P1;SDS_P2;PMS_P1;PMS_P2;Temp;Humidity;BMP_temperature;BMP_pressure;BME280_temperature;BME280_humidity;BME280_pressure;Samples;Min_cycle;Max_cycle;Signal;HPM_P1;HPM_P2
2023/07/16 00:01:02;;;;;;;514.83;475.33;;;;;;;;;;5019371;28;20092;-66
2023/07/16 00:03:29;;;;;;;494.83;460.20;;;;;;;;;;5020314;28;20069;-64
2023/07/16 00:05:56;;;;;;;519.17;479.52;;;;;;;;;;5018751;28;20049;-69
2023/07/16 00:08:23;;;;;;;502.70;465.02;;;;;;;;;;5020565;28;20070;-66
2023/07/16 00:10:50;;;;;;;487.00;452.50;;;;;;;;;;5020802;28;20045;-62
2023/07/16 00:13:17;;;;;;;518.42;479.42;;;;;;;;;;5020464;28;20073;-63
2023/07/16 00:15:44;;;;;;;484.17;450.45;;;;;;;;;;5014346;28;20048;-65
2023/07/16 00:18:11;;;;;;;495.83;460.73;;;;;;;;;;5017334;28;20092;-65
2023/07/16 00:20:38;;;;;;;496.58;461.00;;;;;;;;;;5017382;28;20045;-65
2023/07/16 00:23:05;;;;;;;503.42;463.33;;;;;;;;;;5021863;28;20115;-63
2023/07/16 00:25:32;;;;;;;478.25;444.15;;;;;;;;;;5017277;28;20048;-65
2023/07/16 00:27:59;;;;;;;514.58;474.15;;;;;;;;;;5020998;28;20372;-63
2023/07/16 00:30:26;;;;;;;520.80;478.73;;;;;;;;;;5019532;28;20052;-62
2023/07/16 00:32:53;;;;;;;509.70;468.77;;;;;;;;;;5009149;28;20045;-63
2023/07/16 00:35:20;;;;;;;513.30;474.98;;;;;;;;;;5020053;28;20045;-63
2023/07/16 00:37:47;;;;;;;483.02;448.67;;;;;;;;;;5021591;28;20042;-64
2023/07/16 00:40:14;;;;;;;501.00;465.80;;;;;;;;;;5022340;28;20045;-67
2023/07/16 00:42:49;;;;;;;484.42;451.25;;;;;;;;;;5019363;28;20494;-63
2023/07/16 00:45:16;;;;;;;498.98;463.58;;;;;;;;;;5001785;28;20042;-64
2023/07/16 00:47:43;;;;;;;500.77;463.45;;;;;;;;;;5017451;28;20053;-63
2023/07/16 00:50:11;;;;;;;503.27;462.63;;;;;;;;;;5018207;28;20073;-66
2023/07/16 00:52:39;;;;;;;486.85;452.20;;;;;;;;;;5015596;28;20045;-66
2023/07/16 00:55:06;;;;;;;496.38;460.80;;;;;;;;;;5016533;28;20483;-63
2023/07/16 00:57:34;;;;;;;487.15;451.33;;;;;;;;;;5015856;28;20406;-63
2023/07/16 01:00:01;;;;;;;490.25;454.73;;;;;;;;;;5016000;28;20407;-63
2023/07/16 01:02:28;;;;;;;482.85;447.90;;;;;;;;;;5015940;28;20044;-65
2023/07/16 01:04:55;;;;;;;490.17;451.92;;;;;;;;;;5035618;28;20034;-70
2023/07/16 01:07:25;;;;;;;481.67;447.88;;;;;;;;;;5021765;28;20466;-65
2023/07/16 01:09:54;;;;;;;475.98;442.60;;;;;;;;;;5024796;28;20482;-64
2023/07/16 01:12:22;;;;;;;467.30;433.48;;;;;;;;;;5022995;28;20065;-63
2023/07/16 01:14:52;;;;;;;465.23;433.30;;;;;;;;;;5024361;28;20049;-65
2023/07/16 01:17:19;;;;;;;466.58;433.52;;;;;;;;;;5024351;28;20048;-64
2023/07/16 01:19:46;;;;;;;470.52;437.75;;;;;;;;;;5008259;28;20054;-63
2023/07/16 01:22:23;;;;;;;459.67;426.48;;;;;;;;;;5021114;28;20050;-64
2023/07/16 01:25:05;;;;;;;489.30;451.38;;;;;;;;;;5028285;28;20048;-65
2023/07/16 01:27:51;;;;;;;463.48;431.10;;;;;;;;;;5023040;28;20038;-64
2023/07/16 01:30:19;;;;;;;478.77;443.67;;;;;;;;;;5034115;28;20042;-64
2023/07/16 01:32:46;;;;;;;455.95;424.83;;;;;;;;;;5024560;28;20041;-63
2023/07/16 01:35:14;;;;;;;453.88;420.55;;;;;;;;;;5021715;28;20045;-63
2023/07/16 01:37:42;;;;;;;449.42;419.00;;;;;;;;;;5021887;28;20052;-64
2023/07/16 01:40:09;;;;;;;449.58;416.92;;;;;;;;;;5019004;28;20042;-65
2023/07/16 01:42:36;;;;;;;453.38;420.48;;;;;;;;;;5021751;28;20124;-63
2023/07/16 01:45:04;;;;;;;447.25;415.05;;;;;;;;;;5032221;28;20408;-62
2023/07/16 01:47:31;;;;;;;461.30;427.92;;;;;;;;;;5019238;28;20073;-64
2023/07/16 01:49:58;;;;;;;476.45;438.17;;;;;;;;;;5021709;28;20070;-63
2023/07/16 01:52:26;;;;;;;458.55;427.27;;;;;;;;;;5020876;28;20045;-63
2023/07/16 01:54:55;;;;;;;447.17;414.42;;;;;;;;;;5019383;28;20070;-64
2023/07/16 01:57:22;;;;;;;445.98;413.20;;;;;;;;;;5020782;28;20125;-63
2023/07/16 01:59:49;;;;;;;430.75;399.10;;;;;;;;;;5020913;28;20593;-63
2023/07/16 02:02:16;;;;;;;485.67;450.60;;;;;;;;;;4902814;22;20049;-61
2023/07/16 02:04:44;;;;;;;477.70;439.70;;;;;;;;;;5036209;28;20049;-60
2023/07/16 02:07:11;;;;;;;480.38;443.33;;;;;;;;;;5052587;28;20045;-61
2023/07/16 02:09:38;;;;;;;482.60;448.05;;;;;;;;;;5034855;28;20497;-61
2023/07/16 02:12:04;;;;;;;481.15;447.00;;;;;;;;;;5033711;28;20509;-62
2023/07/16 02:14:31;;;;;;;483.88;449.25;;;;;;;;;;5052913;28;20041;-61
2023/07/16 02:16:58;;;;;;;495.48;456.88;;;;;;;;;;5016287;28;20746;-61
2023/07/16 02:19:25;;;;;;;482.60;449.60;;;;;;;;;;5035570;28;20045;-61
2023/07/16 02:21:54;;;;;;;489.10;455.42;;;;;;;;;;5034380;28;20056;-61
2023/07/16 02:24:21;;;;;;;487.80;453.35;;;;;;;;;;5034712;28;20041;-61
2023/07/16 02:26:50;;;;;;;494.88;461.02;;;;;;;;;;5034623;28;20048;-62
2023/07/16 02:29:17;;;;;;;483.10;449.27;;;;;;;;;;5034653;28;20110;-60
2023/07/16 02:31:45;;;;;;;493.13;458.77;;;;;;;;;;5053775;28;20098;-61
2023/07/16 02:34:13;;;;;;;488.95;456.13;;;;;;;;;;5034789;28;20044;-61
2023/07/16 02:36:39;;;;;;;489.73;456.45;;;;;;;;;;5052136;28;20033;-63
2023/07/16 02:39:06;;;;;;;511.52;466.80;;;;;;;;;;5044084;28;20068;-62
2023/07/16 02:41:33;;;;;;;509.73;466.67;;;;;;;;;;5049416;28;20041;-61
2023/07/16 02:44:01;;;;;;;509.17;468.55;;;;;;;;;;5034588;28;20071;-60
2023/07/16 02:46:27;;;;;;;511.95;475.77;;;;;;;;;;5052972;28;20045;-61
2023/07/16 02:48:54;;;;;;;490.58;456.23;;;;;;;;;;5033592;28;20047;-61
2023/07/16 02:51:21;;;;;;;506.23;471.00;;;;;;;;;;5051915;28;20041;-61
2023/07/16 02:53:47;;;;;;;492.98;457.33;;;;;;;;;;5051849;28;20045;-61
2023/07/16 02:56:14;;;;;;;486.05;451.65;;;;;;;;;;5033920;28;20051;-60
2023/07/16 02:58:41;;;;;;;488.40;455.88;;;;;;;;;;5035303;28;20056;-61
2023/07/16 03:01:08;;;;;;;476.30;443.50;;;;;;;;;;5032892;28;20123;-61
2023/07/16 03:03:35;;;;;;;484.92;451.73;;;;;;;;;;5052034;28;20067;-62
2023/07/16 03:06:02;;;;;;;489.60;455.10;;;;;;;;;;5051937;28;20112;-60
2023/07/16 03:08:29;;;;;;;484.73;450.40;;;;;;;;;;5051647;28;20041;-62
2023/07/16 03:10:57;;;;;;;504.95;465.80;;;;;;;;;;5034170;28;20095;-60
2023/07/16 03:13:24;;;;;;;480.23;448.45;;;;;;;;;;5051489;28;20513;-62
2023/07/16 03:15:51;;;;;;;483.88;448.67;;;;;;;;;;5050957;28;20048;-60
2023/07/16 03:18:18;;;;;;;495.15;460.00;;;;;;;;;;5051521;28;20047;-62
2023/07/16 03:20:44;;;;;;;500.00;465.27;;;;;;;;;;5051766;28;20040;-61
2023/07/16 03:23:12;;;;;;;527.15;487.88;;;;;;;;;;5051378;28;20045;-60
2023/07/16 03:25:39;;;;;;;526.75;487.00;;;;;;;;;;5042984;28;20083;-61
2023/07/16 03:28:05;;;;;;;516.80;480.88;;;;;;;;;;5051591;28;20049;-65
2023/07/16 03:30:33;;;;;;;518.13;482.55;;;;;;;;;;5032865;28;20045;-60
2023/07/16 03:33:00;;;;;;;527.53;490.17;;;;;;;;;;5026639;28;20052;-60
2023/07/16 03:35:26;;;;;;;542.58;502.30;;;;;;;;;;5017144;28;20460;-61
2023/07/16 03:37:53;;;;;;;528.70;491.10;;;;;;;;;;5051833;28;20052;-65
2023/07/16 03:40:25;;;;;;;547.85;508.58;;;;;;;;;;5034039;28;20049;-60
2023/07/16 03:42:53;;;;;;;531.63;494.25;;;;;;;;;;5050858;28;20084;-62
2023/07/16 03:45:19;;;;;;;537.20;498.95;;;;;;;;;;5032922;28;20498;-62
2023/07/16 03:47:46;;;;;;;538.58;498.33;;;;;;;;;;5032706;28;20045;-62
2023/07/16 03:50:13;;;;;;;534.60;494.75;;;;;;;;;;5050621;28;20044;-62
2023/07/16 03:52:39;;;;;;;522.85;485.13;;;;;;;;;;5051920;28;20079;-60
2023/07/16 03:55:06;;;;;;;531.28;493.48;;;;;;;;;;5050736;28;20099;-61
2023/07/16 03:57:33;;;;;;;539.13;500.98;;;;;;;;;;5050599;28;20032;-61
2023/07/16 04:00:00;;;;;;;538.03;499.40;;;;;;;;;;5050650;28;20056;-60
2023/07/16 04:02:28;;;;;;;534.88;496.00;;;;;;;;;;5028752;28;20049;-61
2023/07/16 04:04:55;;;;;;;554.15;512.17;;;;;;;;;;5050797;28;20064;-61
2023/07/16 04:07:21;;;;;;;542.58;503.65;;;;;;;;;;5051336;28;20060;-61
2023/07/16 04:09:48;;;;;;;558.72;517.60;;;;;;;;;;5050962;28;20099;-60
2023/07/16 04:12:15;;;;;;;561.13;519.95;;;;;;;;;;5050625;28;20115;-60
2023/07/16 04:14:42;;;;;;;557.45;516.63;;;;;;;;;;5050663;28;20045;-61
2023/07/16 04:17:09;;;;;;;551.40;490.65;;;;;;;;;;5050269;28;20490;-61
2023/07/16 04:19:35;;;;;;;487.80;452.15;;;;;;;;;;5051936;28;20041;-63
2023/07/16 04:22:02;;;;;;;500.40;464.48;;;;;;;;;;5015742;28;20041;-62
2023/07/16 04:24:29;;;;;;;510.45;471.83;;;;;;;;;;5032230;28;20091;-63
2023/07/16 04:26:55;;;;;;;591.80;545.38;;;;;;;;;;5049890;28;20063;-62
2023/07/16 04:29:22;;;;;;;625.55;576.10;;;;;;;;;;5050163;28;20068;-66
2023/07/16 04:31:49;;;;;;;610.08;561.92;;;;;;;;;;5051570;28;20401;-61
2023/07/16 04:34:15;;;;;;;607.30;558.53;;;;;;;;;;5050429;28;20072;-61
2023/07/16 04:36:42;;;;;;;606.30;558.03;;;;;;;;;;5049999;28;20048;-60
2023/07/16 04:39:09;;;;;;;601.35;552.53;;;;;;;;;;5050363;28;20124;-62
2023/07/16 04:41:36;;;;;;;593.42;546.10;;;;;;;;;;5050116;28;20477;-61
2023/07/16 04:44:03;;;;;;;616.47;564.45;;;;;;;;;;5036244;28;20099;-61
2023/07/16 04:46:30;;;;;;;611.20;560.92;;;;;;;;;;5055326;28;20563;-61
2023/07/16 04:48:57;;;;;;;618.67;567.90;;;;;;;;;;5050955;28;20433;-61
2023/07/16 04:51:24;;;;;;;624.15;573.00;;;;;;;;;;5054029;28;20094;-63
2023/07/16 04:53:51;;;;;;;621.67;570.90;;;;;;;;;;5053886;28;20056;-61
2023/07/16 04:56:17;;;;;;;626.70;574.70;;;;;;;;;;5053729;28;20041;-61
2023/07/16 04:58:44;;;;;;;621.83;570.90;;;;;;;;;;5037204;28;20045;-63
2023/07/16 05:01:11;;;;;;;642.83;590.17;;;;;;;;;;5052896;28;20555;-61
2023/07/16 05:03:38;;;;;;;641.38;588.40;;;;;;;;;;5053653;28;20115;-61
2023/07/16 05:06:05;;;;;;;652.50;597.58;;;;;;;;;;5035865;28;20037;-63
2023/07/16 05:08:31;;;;;;;656.85;602.25;;;;;;;;;;5053829;28;20474;-61
2023/07/16 05:10:59;;;;;;;666.13;608.03;;;;;;;;;;5054338;28;20041;-61
2023/07/16 05:13:25;;;;;;;653.40;600.08;;;;;;;;;;5053993;28;20044;-61
2023/07/16 05:15:52;;;;;;;660.83;606.58;;;;;;;;;;5053817;28;20045;-61
2023/07/16 05:18:22;;;;;;;679.28;622.80;;;;;;;;;;5036432;28;20076;-61
2023/07/16 05:20:49;;;;;;;684.17;626.70;;;;;;;;;;5053514;28;20068;-61
2023/07/16 05:23:15;;;;;;;690.30;632.30;;;;;;;;;;5053306;28;20047;-62
2023/07/16 05:25:46;;;;;;;703.10;644.00;;;;;;;;;;5054626;28;20047;-62
2023/07/16 05:28:13;;;;;;;694.25;635.97;;;;;;;;;;5035724;28;20076;-61
2023/07/16 05:30:39;;;;;;;721.70;661.33;;;;;;;;;;5053145;28;20060;-62
2023/07/16 05:33:06;;;;;;;724.03;662.25;;;;;;;;;;5053462;28;20083;-61
2023/07/16 05:35:33;;;;;;;719.72;659.17;;;;;;;;;;5053627;28;20091;-63
2023/07/16 05:37:59;;;;;;;725.17;662.33;;;;;;;;;;5053671;28;20126;-63
2023/07/16 05:40:26;;;;;;;728.17;666.40;;;;;;;;;;5054182;28;20049;-63
2023/07/16 05:42:57;;;;;;;731.40;669.58;;;;;;;;;;5052833;28;20095;-64
2023/07/16 05:45:27;;;;;;;731.38;669.70;;;;;;;;;;5032407;28;20040;-62
2023/07/16 05:47:54;;;;;;;730.50;669.22;;;;;;;;;;5049467;28;20271;-64
2023/07/16 05:50:20;;;;;;;740.15;677.10;;;;;;;;;;5053040;28;20099;-61
2023/07/16 05:52:48;;;;;;;726.33;665.42;;;;;;;;;;5053879;28;20056;-63
2023/07/16 05:55:15;;;;;;;726.55;665.20;;;;;;;;;;5053062;28;20044;-62
2023/07/16 05:57:42;;;;;;;712.95;652.17;;;;;;;;;;5053383;28;20491;-62
2023/07/16 06:02:45;;;;;;;908.70;828.45;;;;;;;;;;5057617;28;20393;-62
2023/07/16 06:05:12;;;;;;;894.42;813.53;;;;;;;;;;5062194;28;20087;-62
2023/07/16 06:07:39;;;;;;;869.95;791.78;;;;;;;;;;5052191;28;20048;-62
2023/07/16 06:10:06;;;;;;;886.97;808.60;;;;;;;;;;5056018;28;20049;-62
2023/07/16 06:12:32;;;;;;;889.53;803.55;;;;;;;;;;5052259;28;20083;-63
2023/07/16 06:14:59;;;;;;;868.30;789.30;;;;;;;;;;5056602;28;20448;-61
2023/07/16 06:17:25;;;;;;;878.83;801.10;;;;;;;;;;5056545;28;20037;-62
2023/07/16 06:19:52;;;;;;;871.35;792.80;;;;;;;;;;5056963;28;20056;-62
2023/07/16 06:22:20;;;;;;;882.00;803.45;;;;;;;;;;5054323;28;20041;-62
2023/07/16 06:24:46;;;;;;;867.03;789.10;;;;;;;;;;5053627;28;20102;-61
2023/07/16 06:27:13;;;;;;;859.92;782.53;;;;;;;;;;5051861;28;20045;-64
2023/07/16 06:29:40;;;;;;;877.40;797.03;;;;;;;;;;5055621;28;20049;-61
2023/07/16 06:32:07;;;;;;;884.65;804.05;;;;;;;;;;5053433;28;20116;-61
2023/07/16 06:34:33;;;;;;;901.67;820.50;;;;;;;;;;5057811;28;20041;-62
2023/07/16 06:37:00;;;;;;;1042.70;948.30;;;;;;;;;;5055403;28;20041;-61
2023/07/16 06:39:27;;;;;;;1039.13;944.88;;;;;;;;;;5056537;28;20041;-62
2023/07/16 06:41:53;;;;;;;1022.05;929.15;;;;;;;;;;5055894;28;20037;-61
2023/07/16 06:44:21;;;;;;;992.10;901.30;;;;;;;;;;5056981;28;20608;-61
2023/07/16 06:46:48;;;;;;;991.50;900.63;;;;;;;;;;5057547;28;20095;-62
2023/07/16 06:49:14;;;;;;;984.10;893.70;;;;;;;;;;5053558;28;20041;-62
2023/07/16 06:51:41;;;;;;;1082.25;984.08;;;;;;;;;;5047825;28;20460;-61
2023/07/16 06:54:08;;;;;;;1119.57;999.90;;;;;;;;;;5045621;28;20056;-64
2023/07/16 06:56:34;;;;;;;1189.07;999.90;;;;;;;;;;5053844;28;20078;-67
2023/07/16 07:00:44;;;;;;;1999.90;999.90;;;;;;;;;;4719629;22;1838647;-79
2023/07/16 07:03:11;;;;;;;1999.90;999.90;;;;;;;;;;4748914;28;20753;-79
2023/07/16 07:05:41;;;;;;;1999.90;999.90;;;;;;;;;;4760926;28;20670;-79
2023/07/16 07:08:08;;;;;;;1999.90;999.90;;;;;;;;;;4758510;28;20560;-79
2023/07/16 07:10:37;;;;;;;1999.90;999.90;;;;;;;;;;4752133;28;20035;-79
2023/07/16 07:13:04;;;;;;;1999.90;999.90;;;;;;;;;;4716669;28;20135;-79
2023/07/16 07:15:32;;;;;;;1999.90;999.90;;;;;;;;;;4693749;28;20733;-79
2023/07/16 07:17:59;;;;;;;1999.90;999.90;;;;;;;;;;4682724;28;20043;-79
2023/07/16 07:20:26;;;;;;;1999.90;999.90;;;;;;;;;;4662448;28;21191;-79
2023/07/16 07:22:53;;;;;;;1999.90;999.90;;;;;;;;;;4671265;27;20371;-79
2023/07/16 07:25:20;;;;;;;1999.90;999.90;;;;;;;;;;4666206;28;21233;-79
2023/07/16 07:27:48;;;;;;;1999.90;999.90;;;;;;;;;;4667058;28;20410;-79
2023/07/16 07:30:15;;;;;;;1999.90;999.90;;;;;;;;;;4667970;27;21088;-79
2023/07/16 07:32:42;;;;;;;1999.90;999.90;;;;;;;;;;4665068;28;20744;-79
2023/07/16 07:35:09;;;;;;;1999.90;999.90;;;;;;;;;;4663978;28;20043;-79
2023/07/16 07:37:36;;;;;;;1999.90;999.90;;;;;;;;;;4668134;28;20062;-79
2023/07/16 07:40:04;;;;;;;1999.90;999.90;;;;;;;;;;4659384;28;20093;-79
2023/07/16 07:42:30;;;;;;;1999.90;999.90;;;;;;;;;;4649420;28;20658;-80
2023/07/16 07:44:58;;;;;;;1999.90;999.90;;;;;;;;;;4661555;27;20735;-80
2023/07/16 07:47:24;;;;;;;1999.90;999.90;;;;;;;;;;4660597;28;20160;-79
2023/07/16 07:49:52;;;;;;;1999.90;999.90;;;;;;;;;;4660272;28;20644;-78
2023/07/16 07:52:20;;;;;;;1999.90;999.90;;;;;;;;;;4668597;28;21036;-79
2023/07/16 07:54:47;;;;;;;1999.90;999.90;;;;;;;;;;4665244;27;20784;-79
2023/07/16 07:57:14;;;;;;;1999.90;999.90;;;;;;;;;;4663226;28;20040;-79
2023/07/16 07:59:44;;;;;;;1999.90;999.90;;;;;;;;;;4660349;27;20651;-79
2023/07/16 08:02:10;;;;;;;1999.90;999.90;;;;;;;;;;4665070;27;20485;-79
2023/07/16 08:04:38;;;;;;;1999.90;999.90;;;;;;;;;;4667816;28;20055;-78
2023/07/16 08:07:05;;;;;;;1999.90;999.90;;;;;;;;;;4663507;27;20691;-79
2023/07/16 08:09:32;;;;;;;1999.90;999.90;;;;;;;;;;4662608;27;20748;-79
2023/07/16 08:11:59;;;;;;;1999.90;999.90;;;;;;;;;;4652646;28;20530;-79
2023/07/16 08:14:26;;;;;;;1999.90;999.90;;;;;;;;;;4650833;27;20984;-79
2023/07/16 08:16:53;;;;;;;1999.90;999.90;;;;;;;;;;4650063;28;20046;-79
2023/07/16 08:19:20;;;;;;;1999.90;999.90;;;;;;;;;;4643267;28;20647;-78
2023/07/16 08:21:47;;;;;;;1999.90;999.90;;;;;;;;;;4648587;28;20669;-78
2023/07/16 08:24:14;;;;;;;1999.90;999.90;;;;;;;;;;4647092;28;20848;-78
2023/07/16 08:26:41;;;;;;;1999.90;999.90;;;;;;;;;;4644510;28;20070;-78
2023/07/16 08:29:08;;;;;;;1999.90;999.90;;;;;;;;;;4642060;28;20536;-78
2023/07/16 08:31:35;;;;;;;1999.90;999.90;;;;;;;;;;4645139;28;20271;-78
2023/07/16 08:34:03;;;;;;;1999.90;999.90;;;;;;;;;;4646889;28;20596;-78
2023/07/16 08:36:30;;;;;;;1999.90;999.90;;;;;;;;;;4644862;28;20542;-78
2023/07/16 08:38:57;;;;;;;1999.90;999.90;;;;;;;;;;4646344;28;20335;-78
2023/07/16 08:41:24;;;;;;;1999.90;999.90;;;;;;;;;;4649466;28;20324;-78
2023/07/16 08:43:51;;;;;;;1999.90;999.90;;;;;;;;;;4644540;28;21202;-78
2023/07/16 08:46:18;;;;;;;1999.90;999.90;;;;;;;;;;4643255;28;20884;-78
2023/07/16 08:48:46;;;;;;;1999.90;999.90;;;;;;;;;;4637806;28;20044;-78
2023/07/16 08:51:14;;;;;;;1999.90;999.90;;;;;;;;;;4633223;28;20094;-79
2023/07/16 08:53:41;;;;;;;1999.90;999.90;;;;;;;;;;4638680;28;20614;-79
2023/07/16 08:56:08;;;;;;;1999.90;999.90;;;;;;;;;;4643341;28;20073;-78
2023/07/16 08:58:37;;;;;;;1999.90;999.90;;;;;;;;;;4634977;28;20503;-78
2023/07/16 09:01:05;;;;;;;1999.90;999.90;;;;;;;;;;4623955;28;20542;-78
2023/07/16 09:03:32;;;;;;;1999.90;999.90;;;;;;;;;;4630735;28;20558;-79
2023/07/16 09:05:59;;;;;;;1999.90;999.90;;;;;;;;;;4636803;28;20458;-78
2023/07/16 09:08:28;;;;;;;1999.90;999.90;;;;;;;;;;4632831;28;20674;-78
2023/07/16 09:10:58;;;;;;;1999.90;999.90;;;;;;;;;;4640448;28;20450;-78
2023/07/16 09:13:27;;;;;;;1999.90;999.90;;;;;;;;;;4634436;28;21152;-78
2023/07/16 09:15:54;;;;;;;1999.90;999.90;;;;;;;;;;4612535;28;20669;-78
2023/07/16 09:18:22;;;;;;;1999.90;999.90;;;;;;;;;;4635602;28;20796;-78
2023/07/16 09:21:01;;;;;;;1999.90;999.90;;;;;;;;;;4634191;28;20663;-78
2023/07/16 09:23:30;;;;;;;1999.90;999.90;;;;;;;;;;4636829;28;20501;-78
2023/07/16 09:25:57;;;;;;;1999.90;999.90;;;;;;;;;;4633843;28;20623;-79
2023/07/16 09:28:24;;;;;;;1999.90;999.90;;;;;;;;;;4639254;28;20655;-78
2023/07/16 09:30:51;;;;;;;1999.90;999.90;;;;;;;;;;4637686;28;20066;-78
2023/07/16 09:33:19;;;;;;;1999.90;999.90;;;;;;;;;;4636205;28;20150;-78
2023/07/16 09:35:50;;;;;;;1999.90;999.90;;;;;;;;;;4633944;28;20122;-78
2023/07/16 09:38:17;;;;;;;1999.90;999.90;;;;;;;;;;4635602;28;21115;-79
2023/07/16 09:40:45;;;;;;;1999.90;999.90;;;;;;;;;;4635915;28;21245;-78
2023/07/16 09:43:13;;;;;;;1999.90;999.90;;;;;;;;;;4638399;28;20324;-78
2023/07/16 09:45:40;;;;;;;1999.90;999.90;;;;;;;;;;4637423;28;20557;-78
2023/07/16 09:48:09;;;;;;;1999.90;999.90;;;;;;;;;;4639224;28;21132;-78
2023/07/16 09:50:36;;;;;;;1999.90;999.90;;;;;;;;;;4635155;28;20354;-78
2023/07/16 09:53:04;;;;;;;1999.90;999.90;;;;;;;;;;4637550;28;20062;-79
2023/07/16 09:55:32;;;;;;;1999.90;999.90;;;;;;;;;;4638998;28;20449;-79
2023/07/16 09:58:01;;;;;;;1999.90;999.90;;;;;;;;;;4632854;28;20055;-78
2023/07/16 10:00:29;;;;;;;1999.90;999.90;;;;;;;;;;4636242;28;20243;-79
2023/07/16 10:02:57;;;;;;;1999.90;999.90;;;;;;;;;;4636841;27;20715;-78
2023/07/16 10:05:25;;;;;;;1999.90;999.90;;;;;;;;;;4635951;28;20044;-78
2023/07/16 10:07:54;;;;;;;1999.90;999.90;;;;;;;;;;4643271;28;20650;-78
2023/07/16 10:10:21;;;;;;;1999.90;999.90;;;;;;;;;;4635586;28;20503;-79
2023/07/16 10:13:00;;;;;;;1999.90;999.90;;;;;;;;;;4637176;28;20494;-78
2023/07/16 10:15:31;;;;;;;1999.90;999.90;;;;;;;;;;4640805;28;20676;-78
2023/07/16 10:17:58;;;;;;;1999.90;999.90;;;;;;;;;;4638421;28;20701;-78
2023/07/16 10:20:29;;;;;;;1999.90;999.90;;;;;;;;;;4632684;28;20452;-78
2023/07/16 10:22:57;;;;;;;1999.90;999.90;;;;;;;;;;4634196;28;20048;-79
2023/07/16 10:25:26;;;;;;;1999.90;999.90;;;;;;;;;;4636119;28;20956;-78
2023/07/16 10:27:54;;;;;;;1999.90;999.90;;;;;;;;;;4636497;28;21100;-78
2023/07/16 10:30:22;;;;;;;1999.90;999.90;;;;;;;;;;4634868;28;20040;-78
2023/07/16 10:32:51;;;;;;;1999.90;999.90;;;;;;;;;;4638914;28;20573;-78
2023/07/16 10:35:18;;;;;;;1999.90;999.90;;;;;;;;;;4635527;28;21307;-79
2023/07/16 10:37:45;;;;;;;1999.90;999.90;;;;;;;;;;4643325;28;21220;-78
2023/07/16 10:40:12;;;;;;;1999.90;999.90;;;;;;;;;;4637423;28;20051;-79
2023/07/16 10:42:40;;;;;;;1999.90;999.90;;;;;;;;;;4639216;28;20102;-78
2023/07/16 10:45:07;;;;;;;1999.90;999.90;;;;;;;;;;4638810;28;20746;-78
2023/07/16 10:47:35;;;;;;;1999.90;999.90;;;;;;;;;;4643281;28;20031;-79
2023/07/16 10:50:09;;;;;;;1999.90;999.90;;;;;;;;;;4647923;28;20059;-79
2023/07/16 10:52:37;;;;;;;1999.90;999.90;;;;;;;;;;4643689;28;20633;-78
2023/07/16 10:55:04;;;;;;;1999.90;999.90;;;;;;;;;;4642847;28;21119;-79
2023/07/16 10:57:31;;;;;;;1999.90;999.90;;;;;;;;;;4644583;28;20668;-79
2023/07/16 10:59:58;;;;;;;1999.90;999.90;;;;;;;;;;4637256;28;20556;-78
2023/07/16 11:02:25;;;;;;;1999.90;999.90;;;;;;;;;;4638412;28;20857;-78
2023/07/16 11:04:53;;;;;;;1999.90;999.90;;;;;;;;;;4621645;28;20770;-79
2023/07/16 11:07:21;;;;;;;1999.90;999.90;;;;;;;;;;4638177;28;21179;-78
2023/07/16 11:09:53;;;;;;;1999.90;999.90;;;;;;;;;;4634719;28;20372;-79
2023/07/16 11:12:24;;;;;;;1999.90;869.88;;;;;;;;;;4707175;28;20051;-77
2023/07/16 11:14:52;;;;;;;1999.90;999.90;;;;;;;;;;4702845;28;20035;-79
2023/07/16 11:17:19;;;;;;;1999.90;999.90;;;;;;;;;;4627572;28;20784;-78
2023/07/16 11:19:47;;;;;;;1999.90;999.90;;;;;;;;;;4639373;28;20394;-79
2023/07/16 11:22:14;;;;;;;1999.90;999.90;;;;;;;;;;4646734;28;20455;-79
2023/07/16 11:24:49;;;;;;;1999.90;999.90;;;;;;;;;;4662350;28;20474;-79
2023/07/16 11:27:19;;;;;;;1999.90;999.90;;;;;;;;;;4661607;28;20036;-78
2023/07/16 11:29:50;;;;;;;1999.90;999.90;;;;;;;;;;4663335;28;20054;-79
2023/07/16 11:32:27;;;;;;;1999.90;999.90;;;;;;;;;;4664469;28;20056;-79
2023/07/16 11:34:55;;;;;;;1999.90;978.60;;;;;;;;;;4660949;28;20066;-79
2023/07/16 11:37:23;;;;;;;1999.90;999.90;;;;;;;;;;4664080;28;20543;-79
2023/07/16 11:39:50;;;;;;;1999.90;999.90;;;;;;;;;;4670159;28;20615;-79
2023/07/16 11:42:24;;;;;;;1999.90;993.63;;;;;;;;;;4681261;28;20036;-79
2023/07/16 11:44:51;;;;;;;1999.90;999.85;;;;;;;;;;4667747;28;20879;-78
2023/07/16 11:47:18;;;;;;;1999.90;999.90;;;;;;;;;;4656107;28;20928;-79
2023/07/16 11:49:45;;;;;;;1999.90;999.90;;;;;;;;;;4639402;28;20658;-79
2023/07/16 11:52:12;;;;;;;1999.90;999.90;;;;;;;;;;4639556;28;20628;-79
2023/07/16 11:54:40;;;;;;;1999.90;999.90;;;;;;;;;;4642950;28;20325;-78
2023/07/16 11:57:07;;;;;;;1999.90;999.90;;;;;;;;;;4646165;28;20569;-78
2023/07/16 11:59:34;;;;;;;1999.90;999.90;;;;;;;;;;4640328;28;20060;-79
2023/07/16 12:02:01;;;;;;;1999.90;999.90;;;;;;;;;;4653393;28;20584;-79
2023/07/16 12:04:28;;;;;;;1999.90;999.90;;;;;;;;;;4649903;28;20676;-78
2023/07/16 12:06:55;;;;;;;1999.90;999.90;;;;;;;;;;4639875;28;21140;-79
2023/07/16 12:09:22;;;;;;;1999.90;999.90;;;;;;;;;;4652827;28;20413;-78
2023/07/16 12:11:49;;;;;;;1999.90;999.90;;;;;;;;;;4653335;28;20074;-78
2023/07/16 12:14:16;;;;;;;1999.90;999.90;;;;;;;;;;4656917;28;20639;-78
2023/07/16 12:16:43;;;;;;;1999.90;980.03;;;;;;;;;;4671423;28;20347;-78
2023/07/16 12:19:10;;;;;;;1999.90;992.55;;;;;;;;;;4666759;28;20047;-79
2023/07/16 12:21:37;;;;;;;1999.90;998.15;;;;;;;;;;4655237;28;20203;-79
2023/07/16 12:24:05;;;;;;;1999.90;977.08;;;;;;;;;;4676624;28;20039;-79
2023/07/16 12:26:32;;;;;;;1999.90;998.25;;;;;;;;;;4683601;28;20124;-79
2023/07/16 12:29:02;;;;;;;1999.90;994.92;;;;;;;;;;4687581;28;20409;-79
2023/07/16 12:31:32;;;;;;;1999.90;934.35;;;;;;;;;;4693616;28;20573;-78
2023/07/16 12:34:01;;;;;;;1999.90;942.65;;;;;;;;;;4696184;28;20456;-78
2023/07/16 12:36:28;;;;;;;1999.90;842.63;;;;;;;;;;4715820;28;20585;-78
2023/07/16 12:38:55;;;;;;;1999.90;811.10;;;;;;;;;;4758722;28;20498;-78
2023/07/16 12:41:22;;;;;;;1999.90;725.85;;;;;;;;;;4796857;28;20707;-79
2023/07/16 12:43:49;;;;;;;1999.90;755.10;;;;;;;;;;4806468;28;20040;-79
2023/07/16 12:46:16;;;;;;;1999.90;749.28;;;;;;;;;;4800184;28;20535;-79
2023/07/16 12:48:44;;;;;;;1999.90;726.13;;;;;;;;;;4807152;28;20465;-79
2023/07/16 12:51:10;;;;;;;1999.90;771.63;;;;;;;;;;4813089;28;20121;-79
2023/07/16 12:53:38;;;;;;;1999.90;731.92;;;;;;;;;;4815825;28;21063;-79
2023/07/16 12:56:05;;;;;;;1999.90;767.80;;;;;;;;;;4820754;28;20039;-78
2023/07/16 12:58:32;;;;;;;1999.90;724.60;;;;;;;;;;4818156;28;20517;-79
2023/07/16 13:00:58;;;;;;;1999.90;750.55;;;;;;;;;;4817327;28;20063;-79
2023/07/16 13:03:25;;;;;;;1999.90;714.55;;;;;;;;;;4822074;28;20622;-78
2023/07/16 13:05:52;;;;;;;1999.90;696.78;;;;;;;;;;4818644;28;20046;-78
2023/07/16 13:08:19;;;;;;;1999.90;780.53;;;;;;;;;;4810371;28;20708;-79
2023/07/16 13:10:46;;;;;;;1999.90;730.63;;;;;;;;;;4819952;28;21311;-78
2023/07/16 13:13:13;;;;;;;1999.90;746.03;;;;;;;;;;4811579;28;20047;-79
2023/07/16 13:15:40;;;;;;;1999.90;780.35;;;;;;;;;;4804613;28;21040;-79
2023/07/16 13:18:09;;;;;;;1999.90;764.92;;;;;;;;;;4809296;28;20095;-78
2023/07/16 13:20:36;;;;;;;1999.90;761.25;;;;;;;;;;4815042;28;20329;-79
2023/07/16 13:23:03;;;;;;;1999.90;834.47;;;;;;;;;;4811817;28;21167;-79
2023/07/16 13:25:30;;;;;;;1999.90;791.28;;;;;;;;;;4814718;28;20636;-78
2023/07/16 13:27:58;;;;;;;1999.90;816.97;;;;;;;;;;4806290;28;20299;-78
2023/07/16 13:30:26;;;;;;;1999.90;807.42;;;;;;;;;;4808435;28;20050;-78
2023/07/16 13:32:55;;;;;;;1999.90;782.22;;;;;;;;;;4807280;28;20131;-78
2023/07/16 13:35:23;;;;;;;1999.90;794.75;;;;;;;;;;4812615;28;20597;-78
2023/07/16 13:37:50;;;;;;;1999.90;939.00;;;;;;;;;;4796722;28;20118;-78
2023/07/16 13:40:19;;;;;;;1999.90;815.53;;;;;;;;;;4801546;28;20140;-79
2023/07/16 13:42:47;;;;;;;1999.90;804.03;;;;;;;;;;4796480;28;20044;-78
2023/07/16 13:45:14;;;;;;;1999.90;817.90;;;;;;;;;;4807397;28;20477;-78
2023/07/16 13:47:42;;;;;;;1999.90;828.25;;;;;;;;;;4801285;28;20552;-78
2023/07/16 13:50:09;;;;;;;1999.90;900.78;;;;;;;;;;4798763;28;20290;-79
2023/07/16 13:52:36;;;;;;;1999.90;878.58;;;;;;;;;;4798449;28;20068;-78